Time;durP1;ratioP1;P1;durP2;ratioP2;P2;SDS_P1;SDS_P2;PMS_P1;PMS_P2;Temp;Humidity;BMP_temperature;BMP_pressure;BME280_temperature;BME280_humidity;BME280_pressure;Samples;Min_cycle;Max_cycle;Signal;HPM_P1;HPM_P2
2022/06/24 00:01:17;;;;;;;3.38;2.35;;;27.60;58.80;;;;;;5072433;28;20059;-64
2022/06/24 00:03:45;;;;;;;5.00;2.35;;;27.50;58.90;;;;;;5067640;28;20056;-64
2022/06/24 00:06:18;;;;;;;4.57;2.53;;;27.50;59.10;;;;;;5065378;28;20039;-64
2022/06/24 00:08:56;;;;;;;;;;;27.50;59.20;;;;;;5056042;28;20028;-64
2022/06/24 00:11:28;;;;;;;2.47;1.42;;;27.40;60.00;;;;;;5072979;28;20015;-64
2022/06/24 00:14:09;;;;;;;2.40;1.92;;;27.40;64.00;;;;;;5070943;28;20027;-64
2022/06/24 00:17:01;;;;;;;6.50;2.40;;;27.30;65.50;;;;;;5070881;28;20044;-65
2022/06/24 00:19:28;;;;;;;10.88;4.28;;;27.30;64.10;;;;;;5061686;28;20093;-64
2022/06/24 00:22:05;;;;;;;5.32;2.33;;;27.20;62.70;;;;;;5072318;28;20108;-64
2022/06/24 00:24:32;;;;;;;4.65;2.10;;;27.10;61.90;;;;;;5072176;28;20044;-64
2022/06/24 00:26:58;;;;;;;3.95;2.10;;;27.00;62.00;;;;;;5066355;28;20063;-64
2022/06/24 00:29:30;;;;;;;6.20;2.85;;;27.00;61.10;;;;;;5066251;28;20052;-64
2022/06/24 00:32:07;;;;;;;5.20;2.47;;;26.90;61.00;;;;;;5071567;28;20039;-64
2022/06/24 00:34:37;;;;;;;6.50;2.63;;;26.90;62.80;;;;;;5072287;28;20032;-64
2022/06/24 00:37:23;;;;;;;3.92;2.20;;;26.80;64.20;;;;;;5073115;28;20040;-64
2022/06/24 00:39:48;;;;;;;5.07;2.90;;;26.80;65.20;;;;;;5071117;28;20028;-64
2022/06/24 00:42:15;;;;;;;3.65;2.28;;;26.80;63.90;;;;;;5073172;28;20028;-64
2022/06/24 00:45:29;;;;;;;6.90;2.90;;;26.70;62.70;;;;;;5059233;28;20032;-64
2022/06/24 00:47:56;;;;;;;5.93;2.40;;;26.70;62.40;;;;;;5064666;28;20073;-64
2022/06/24 00:50:31;;;;;;;4.60;2.22;;;26.60;61.90;;;;;;5059773;28;20021;-64
2022/06/24 00:52:59;;;;;;;4.53;2.30;;;26.60;61.80;;;;;;5065359;28;20032;-64
2022/06/24 00:55:30;;;;;;;3.08;2.20;;;26.50;62.00;;;;;;5071246;28;20462;-65
2022/06/24 00:57:58;;;;;;;9.13;2.50;;;26.40;62.10;;;;;;5061011;28;20048;-64
2022/06/24 01:00:29;;;;;;;4.78;2.30;;;26.40;62.40;;;;;;5071518;28;20028;-64
2022/06/24 01:02:59;;;;;;;5.25;2.90;;;26.30;62.20;;;;;;5070718;28;20032;-64
2022/06/24 01:05:25;;;;;;;4.18;2.30;;;26.30;62.40;;;;;;5062067;28;20098;-64
2022/06/24 01:07:51;;;;;;;6.55;2.13;;;26.30;62.50;;;;;;5067325;28;20075;-64
2022/06/24 01:10:17;;;;;;;2.95;2.20;;;26.20;62.50;;;;;;5066082;28;20055;-64
2022/06/24 01:12:42;;;;;;;6.43;2.75;;;26.20;62.40;;;;;;5071640;28;20056;-64
2022/06/24 01:15:08;;;;;;;5.80;2.45;;;26.20;62.30;;;;;;5071504;28;20115;-65
2022/06/24 01:17:35;;;;;;;3.72;2.20;;;26.10;62.40;;;;;;5070987;28;20033;-64
2022/06/24 01:20:01;;;;;;;4.53;2.22;;;26.10;62.40;;;;;;5071403;28;20071;-64
2022/06/24 01:22:27;;;;;;;4.68;2.40;;;26.00;63.00;;;;;;5071028;28;20056;-64
2022/06/24 01:24:53;;;;;;;2.95;2.42;;;26.00;63.40;;;;;;5064295;28;20101;-64
2022/06/24 01:27:22;;;;;;;4.65;2.22;;;25.90;63.80;;;;;;5071579;28;20025;-64
2022/06/24 01:29:47;;;;;;;5.22;2.78;;;25.90;63.80;;;;;;5070942;28;20043;-64
2022/06/24 01:32:13;;;;;;;4.82;2.35;;;25.80;63.60;;;;;;5071263;28;20036;-64
2022/06/24 01:34:39;;;;;;;5.05;2.63;;;25.80;63.70;;;;;;5070594;28;20077;-64
2022/06/24 01:37:05;;;;;;;4.45;2.97;;;25.80;63.70;;;;;;5065994;28;20041;-64
2022/06/24 01:39:31;;;;;;;4.82;2.60;;;25.70;63.70;;;;;;5071333;28;20029;-64
2022/06/24 01:41:57;;;;;;;8.50;2.80;;;25.70;64.00;;;;;;5070528;28;20107;-64
2022/06/24 01:44:23;;;;;;;3.60;2.85;;;25.70;64.10;;;;;;5067123;28;20104;-64
2022/06/24 01:46:50;;;;;;;4.35;2.70;;;25.60;64.00;;;;;;5067248;28;20099;-64
2022/06/24 01:49:16;;;;;;;8.63;3.15;;;25.60;64.10;;;;;;5067023;28;20392;-64
2022/06/24 01:51:44;;;;;;;4.25;2.80;;;25.60;64.30;;;;;;5067550;28;20055;-64
2022/06/24 01:54:10;;;;;;;7.43;3.05;;;25.50;64.20;;;;;;5072187;28;20031;-64
2022/06/24 01:56:36;;;;;;;5.20;2.90;;;25.50;64.20;;;;;;5066273;28;20037;-64
2022/06/24 01:59:02;;;;;;;4.63;2.78;;;25.40;64.10;;;;;;5051684;28;20028;-64
2022/06/24 02:01:27;;;;;;;6.53;3.00;;;25.30;64.30;;;;;;5055689;28;20051;-70
2022/06/24 02:03:53;;;;;;;6.45;3.10;;;25.30;64.50;;;;;;5060749;28;20412;-64
2022/06/24 02:06:19;;;;;;;8.63;3.10;;;25.30;64.50;;;;;;5067133;28;20021;-64
2022/06/24 02:08:45;;;;;;;3.83;2.80;;;25.20;64.40;;;;;;5071398;28;20056;-64
2022/06/24 02:14:01;;;;;;;9.05;3.47;;;25.20;64.70;;;;;;5067643;28;20030;-65
2022/06/24 02:16:27;;;;;;;4.22;2.58;;;25.10;64.90;;;;;;5068045;28;20040;-64
2022/06/24 02:18:56;;;;;;;3.88;2.78;;;25.10;65.10;;;;;;5062413;28;20512;-64
2022/06/24 02:21:23;;;;;;;5.07;2.70;;;25.00;65.20;;;;;;5068603;28;20063;-65
2022/06/24 02:23:52;;;;;;;4.90;2.63;;;25.00;65.50;;;;;;5064547;28;20472;-65
2022/06/24 02:26:22;;;;;;;3.28;2.50;;;24.90;65.70;;;;;;5064049;28;20032;-65
2022/06/24 02:28:48;;;;;;;6.75;2.70;;;24.90;66.00;;;;;;5066822;28;20037;-65
2022/06/24 02:31:14;;;;;;;6.53;3.13;;;24.80;66.30;;;;;;5065382;28;20032;-64
2022/06/24 02:33:43;;;;;;;4.55;2.97;;;24.80;66.60;;;;;;5060697;28;20029;-65
2022/06/24 02:36:09;;;;;;;4.30;2.75;;;24.70;66.80;;;;;;5049538;28;20548;-64
2022/06/24 02:38:35;;;;;;;4.25;2.97;;;24.70;67.00;;;;;;5064203;28;20132;-65
2022/06/24 02:41:01;;;;;;;5.53;2.95;;;24.60;67.00;;;;;;5069402;28;20492;-65
2022/06/24 02:43:32;;;;;;;4.22;2.80;;;24.60;67.10;;;;;;5060360;28;20043;-65
2022/06/24 02:46:03;;;;;;;6.47;3.13;;;24.60;67.20;;;;;;5066766;28;20528;-65
2022/06/24 02:48:30;;;;;;;4.60;3.20;;;24.50;67.20;;;;;;5068346;28;20025;-64
2022/06/24 02:51:01;;;;;;;4.07;3.13;;;24.50;67.40;;;;;;5054746;28;20445;-65
2022/06/24 02:53:28;;;;;;;7.88;3.00;;;24.40;67.30;;;;;;5062723;28;20025;-65
2022/06/24 02:55:57;;;;;;;3.97;3.03;;;24.40;67.40;;;;;;5069973;28;20032;-65
2022/06/24 02:58:23;;;;;;;6.93;2.78;;;24.40;67.80;;;;;;5072639;28;20043;-65
2022/06/24 03:00:49;;;;;;;5.32;3.15;;;24.30;68.00;;;;;;5059575;28;20020;-65
2022/06/24 03:03:17;;;;;;;5.25;3.10;;;24.30;68.80;;;;;;5074768;28;20040;-64
2022/06/24 03:05:44;;;;;;;4.47;3.25;;;24.30;68.30;;;;;;5073605;28;20097;-65
2022/06/24 03:08:11;;;;;;;3.88;3.13;;;24.20;68.50;;;;;;5060552;28;20473;-65
2022/06/24 03:10:37;;;;;;;9.13;3.10;;;24.20;68.60;;;;;;5068042;28;20042;-65
2022/06/24 03:13:04;;;;;;;6.32;3.10;;;24.20;68.60;;;;;;5072099;28;20029;-65
2022/06/24 03:15:30;;;;;;;8.07;3.55;;;24.10;68.80;;;;;;5055157;28;20105;-65
2022/06/24 03:17:56;;;;;;;5.40;3.40;;;24.10;69.00;;;;;;5068020;28;20040;-65
2022/06/24 03:20:22;;;;;;;3.90;3.22;;;24.10;69.10;;;;;;5074316;28;20040;-65
2022/06/24 03:22:48;;;;;;;5.38;3.60;;;24.10;69.30;;;;;;5074186;28;20036;-64
2022/06/24 03:25:14;;;;;;;6.45;3.60;;;24.10;69.40;;;;;;5068050;28;20031;-65
2022/06/24 03:27:40;;;;;;;5.53;3.53;;;24.00;69.50;;;;;;5064372;28;20036;-65
2022/06/24 03:30:07;;;;;;;7.10;4.10;;;24.00;69.60;;;;;;5060361;28;20438;-65
2022/06/24 03:32:33;;;;;;;5.97;3.75;;;24.00;69.70;;;;;;5074841;28;20024;-65
2022/06/24 03:34:59;;;;;;;6.72;3.70;;;24.00;69.80;;;;;;5069003;28;20025;-65
2022/06/24 03:37:26;;;;;;;8.27;3.75;;;24.00;69.90;;;;;;5065586;28;20123;-65
2022/06/24 03:39:52;;;;;;;5.60;3.72;;;24.00;70.10;;;;;;5073508;28;20029;-65
2022/06/24 03:42:17;;;;;;;5.32;4.05;;;23.90;70.30;;;;;;5059825;28;20041;-65
2022/06/24 03:44:49;;;;;;;7.07;4.10;;;23.90;70.60;;;;;;5066410;28;20103;-65
2022/06/24 03:47:15;;;;;;;5.00;3.60;;;23.90;70.70;;;;;;5067901;28;20040;-65
2022/06/24 03:49:41;;;;;;;6.45;3.70;;;23.90;70.80;;;;;;5067216;28;20032;-64
2022/06/24 03:52:07;;;;;;;6.20;3.75;;;23.90;71.10;;;;;;5067925;28;20032;-65
2022/06/24 03:54:33;;;;;;;8.63;3.88;;;23.80;71.30;;;;;;5073210;28;20029;-65
2022/06/24 03:57:00;;;;;;;5.70;3.63;;;23.90;71.30;;;;;;5070856;28;20044;-65
2022/06/24 03:59:29;;;;;;;9.45;3.75;;;23.80;71.20;;;;;;5067130;28;20115;-65
2022/06/24 04:01:56;;;;;;;7.18;3.17;;;23.80;71.00;;;;;;5065769;28;20495;-65
2022/06/24 04:04:22;;;;;;;7.15;3.83;;;23.90;71.40;;;;;;5065092;28;20037;-64
2022/06/24 04:06:48;;;;;;;6.18;3.35;;;23.80;70.40;;;;;;5073630;28;20502;-65
2022/06/24 04:09:14;;;;;;;7.18;3.05;;;23.80;70.00;;;;;;5066007;28;20032;-65
2022/06/24 04:11:39;;;;;;;6.72;3.40;;;23.80;70.10;;;;;;5073361;28;20036;-64
2022/06/24 04:14:05;;;;;;;6.93;3.65;;;23.90;70.10;;;;;;5067151;28;20036;-65
2022/06/24 04:16:31;;;;;;;10.57;3.45;;;23.80;69.90;;;;;;5066561;28;20032;-65
2022/06/24 04:18:59;;;;;;;6.95;3.15;;;23.80;70.00;;;;;;5072984;28;20033;-65
2022/06/24 04:21:25;;;;;;;8.32;3.42;;;23.80;69.90;;;;;;5066578;28;20480;-64
2022/06/24 04:23:51;;;;;;;5.78;3.35;;;23.90;69.90;;;;;;5066323;28;20039;-64
2022/06/24 04:26:18;;;;;;;6.18;3.55;;;23.90;69.80;;;;;;5062629;28;20029;-65
2022/06/24 04:28:45;;;;;;;5.70;3.45;;;23.80;69.70;;;;;;5070124;28;20036;-64
2022/06/24 04:31:12;;;;;;;6.85;3.40;;;23.80;69.60;;;;;;5060818;28;20440;-65
2022/06/24 04:33:40;;;;;;;12.05;4.35;;;23.80;69.90;;;;;;5071569;28;20506;-65
2022/06/24 04:36:13;;;;;;;6.95;3.33;;;23.80;70.00;;;;;;5072538;28;20056;-65
2022/06/24 04:38:42;;;;;;;7.93;3.63;;;23.80;70.30;;;;;;5059998;28;20455;-64
2022/06/24 04:41:16;;;;;;;7.63;3.15;;;23.80;70.20;;;;;;5068638;28;20408;-65
2022/06/24 04:43:42;;;;;;;5.63;2.55;;;23.90;70.40;;;;;;5060686;28;20473;-65
2022/06/24 04:46:08;;;;;;;5.85;2.70;;;23.90;71.60;;;;;;5069950;28;20058;-65
2022/06/24 04:48:35;;;;;;;10.80;3.25;;;23.90;72.40;;;;;;5072407;28;20455;-65
2022/06/24 04:51:02;;;;;;;5.15;2.90;;;23.80;72.90;;;;;;5062637;28;20066;-66
2022/06/24 04:53:28;;;;;;;6.95;2.80;;;23.90;72.70;;;;;;5055306;28;20021;-65
2022/06/24 04:55:53;;;;;;;6.57;2.80;;;23.90;72.70;;;;;;5065793;28;20029;-65
2022/06/24 04:58:19;;;;;;;8.27;3.20;;;24.00;73.50;;;;;;5070910;28;20081;-66
2022/06/24 05:00:45;;;;;;;5.85;3.10;;;23.90;73.60;;;;;;5070442;28;20032;-66
2022/06/24 05:03:10;;;;;;;7.90;2.80;;;23.90;73.70;;;;;;5071092;28;20040;-65
2022/06/24 05:05:36;;;;;;;10.57;3.45;;;24.00;73.50;;;;;;5070860;28;20044;-65
2022/06/24 05:08:02;;;;;;;10.90;3.40;;;24.00;73.40;;;;;;5070341;28;21245;-63
2022/06/24 05:10:28;;;;;;;6.03;2.75;;;24.00;73.40;;;;;;5068099;28;20107;-64
2022/06/24 05:12:53;;;;;;;4.82;2.70;;;24.00;72.90;;;;;;5068708;28;20036;-67
2022/06/24 05:15:19;;;;;;;7.50;2.85;;;24.00;72.50;;;;;;5067973;28;20020;-65
2022/06/24 05:17:45;;;;;;;4.53;2.60;;;24.00;72.60;;;;;;5066703;28;20048;-66
2022/06/24 05:20:10;;;;;;;8.57;2.60;;;24.00;73.10;;;;;;5068119;28;20024;-65
2022/06/24 05:22:38;;;;;;;6.65;2.95;;;24.10;72.90;;;;;;5068568;28;20041;-65
2022/06/24 05:25:07;;;;;;;6.05;3.10;;;24.20;72.90;;;;;;5065826;28;20032;-66
2022/06/24 05:27:33;;;;;;;8.85;3.20;;;24.20;72.90;;;;;;5068449;28;20391;-65
2022/06/24 05:30:02;;;;;;;3.42;2.72;;;24.20;72.30;;;;;;5068591;28;20039;-64
2022/06/24 05:32:28;;;;;;;6.65;2.90;;;24.20;72.00;;;;;;5067580;28;20024;-65
2022/06/24 05:34:54;;;;;;;6.80;3.45;;;24.30;72.00;;;;;;5068916;28;20553;-65
2022/06/24 05:37:19;;;;;;;7.28;3.22;;;24.30;71.50;;;;;;5068860;28;20055;-65
2022/06/24 05:39:45;;;;;;;5.97;3.03;;;24.20;71.20;;;;;;5068702;28;20024;-65
2022/06/24 05:42:11;;;;;;;8.63;2.65;;;24.30;71.30;;;;;;5068080;28;20078;-65
2022/06/24 05:44:36;;;;;;;7.22;3.10;;;24.30;71.30;;;;;;5069509;28;20024;-65
2022/06/24 05:47:02;;;;;;;8.75;3.25;;;24.30;71.20;;;;;;5067888;28;20111;-65
2022/06/24 05:49:28;;;;;;;14.50;3.33;;;24.30;71.00;;;;;;5069353;28;20380;-68
2022/06/24 05:51:54;;;;;;;9.68;3.60;;;24.30;71.00;;;;;;5067325;28;20430;-65
2022/06/24 05:57:04;;;;;;;6.47;3.58;;;24.40;71.20;;;;;;5066453;28;20098;-65
2022/06/24 05:59:30;;;;;;;11.32;3.85;;;24.40;71.40;;;;;;5071207;28;20464;-66
2022/06/24 06:01:55;;;;;;;7.45;3.45;;;24.40;71.60;;;;;;5070267;28;20058;-65
2022/06/24 06:04:21;;;;;;;8.25;3.42;;;24.40;71.80;;;;;;5067355;28;20102;-65
2022/06/24 06:06:48;;;;;;;9.85;3.55;;;24.40;72.00;;;;;;5070873;28;20116;-65
2022/06/24 06:09:14;;;;;;;5.88;3.40;;;24.40;71.90;;;;;;5066522;28;20033;-65
2022/06/24 06:11:40;;;;;;;6.03;3.38;;;24.40;72.10;;;;;;5067758;28;20032;-64
2022/06/24 06:14:06;;;;;;;6.85;3.60;;;24.40;72.40;;;;;;5069134;28;20024;-66
2022/06/24 06:16:31;;;;;;;12.77;3.60;;;24.40;73.40;;;;;;5068605;28;20036;-66
2022/06/24 06:18:57;;;;;;;6.95;3.35;;;24.40;72.90;;;;;;5071437;28;20460;-65
2022/06/24 06:21:23;;;;;;;5.15;3.15;;;24.40;72.70;;;;;;5071229;28;20029;-65
2022/06/24 06:23:49;;;;;;;5.57;3.35;;;24.40;72.80;;;;;;5067613;28;20043;-65
2022/06/24 06:26:15;;;;;;;27.60;5.22;;;24.40;72.90;;;;;;5053328;28;20036;-65
2022/06/24 06:28:41;;;;;;;15.32;3.95;;;24.40;73.10;;;;;;5069375;28;20407;-65
2022/06/24 06:31:09;;;;;;;15.10;5.57;;;24.40;74.00;;;;;;5071074;28;20024;-65
2022/06/24 06:33:35;;;;;;;16.50;4.55;;;24.30;73.50;;;;;;5075590;28;20072;-64
2022/06/24 06:36:18;;;;;;;20.60;4.82;;;24.20;74.50;;;;;;5075831;28;20036;-64
2022/06/24 06:38:44;;;;;;;14.70;5.10;;;24.10;75.40;;;;;;5063488;28;20552;-64
2022/06/24 06:41:10;;;;;;;13.38;4.53;;;24.00;75.90;;;;;;5070851;28;20112;-64
2022/06/24 06:43:36;;;;;;;6.40;3.60;;;24.00;76.40;;;;;;5072222;28;20028;-64
2022/06/24 06:46:02;;;;;;;6.57;4.00;;;23.90;76.10;;;;;;5068437;28;20027;-64
2022/06/24 06:48:28;;;;;;;10.43;5.18;;;23.80;76.80;;;;;;5070964;28;20488;-64
2022/06/24 06:50:55;;;;;;;14.93;5.55;;;23.80;77.60;;;;;;5065951;28;20022;-64
2022/06/24 06:53:21;;;;;;;8.77;5.95;;;23.70;78.10;;;;;;5060645;28;20469;-65
2022/06/24 06:55:50;;;;;;;12.85;6.32;;;23.70;78.60;;;;;;5062080;28;20075;-64
2022/06/24 06:58:17;;;;;;;11.93;6.57;;;23.60;79.50;;;;;;5068514;28;20048;-65
2022/06/24 07:00:44;;;;;;;15.15;7.20;;;23.60;79.70;;;;;;5061120;28;20031;-65
2022/06/24 07:03:10;;;;;;;11.68;6.93;;;23.60;80.20;;;;;;5063730;28;20056;-65
2022/06/24 07:05:36;;;;;;;13.75;6.47;;;23.60;81.00;;;;;;5073227;28;20044;-66
2022/06/24 07:08:02;;;;;;;13.90;7.53;;;23.60;81.60;;;;;;5069354;28;20025;-65
2022/06/24 07:10:28;;;;;;;13.30;6.95;;;23.70;82.00;;;;;;5067102;28;20842;-66
2022/06/24 07:12:55;;;;;;;9.57;4.90;;;23.70;82.10;;;;;;5067928;28;20103;-64
2022/06/24 07:15:21;;;;;;;9.65;6.15;;;23.70;82.00;;;;;;5061860;28;20028;-65
2022/06/24 07:17:49;;;;;;;8.77;6.32;;;23.60;82.20;;;;;;5074725;28;20060;-68
2022/06/24 07:20:15;;;;;;;10.60;6.30;;;23.60;82.40;;;;;;5069308;28;20063;-64
2022/06/24 07:22:40;;;;;;;10.82;6.60;;;23.60;82.50;;;;;;5058941;28;20229;-64
2022/06/24 07:25:07;;;;;;;10.23;6.47;;;23.60;82.80;;;;;;5069823;28;20021;-65
2022/06/24 07:27:32;;;;;;;9.45;5.53;;;23.60;83.50;;;;;;5063207;28;20039;-64
2022/06/24 07:29:58;;;;;;;11.30;4.75;;;23.60;82.50;;;;;;5071747;28;20036;-64
2022/06/24 07:32:24;;;;;;;11.88;6.82;;;23.60;81.00;;;;;;5064258;28;20032;-64
2022/06/24 07:34:50;;;;;;;17.50;5.63;;;23.50;82.20;;;;;;5072318;28;20029;-64
2022/06/24 07:37:15;;;;;;;10.43;6.25;;;23.50;82.10;;;;;;5073998;28;20028;-64
2022/06/24 07:39:41;;;;;;;11.85;5.90;;;23.50;82.90;;;;;;5073597;28;20043;-64
2022/06/24 07:42:07;;;;;;;9.27;5.70;;;23.50;83.10;;;;;;5062562;28;20040;-64
2022/06/24 07:44:33;;;;;;;10.02;5.70;;;23.40;83.50;;;;;;5059019;28;20384;-63
2022/06/24 07:46:59;;;;;;;10.27;6.72;;;23.40;84.10;;;;;;5073985;28;20029;-64
2022/06/24 07:49:24;;;;;;;17.70;6.82;;;23.50;85.70;;;;;;5058718;28;20103;-65
2022/06/24 07:51:50;;;;;;;14.68;5.72;;;23.50;85.90;;;;;;5073849;28;20365;-64
2022/06/24 07:54:16;;;;;;;19.45;6.40;;;23.40;86.20;;;;;;5068760;28;20045;-65
2022/06/24 07:56:57;;;;;;;10.45;5.32;;;23.50;87.30;;;;;;5065659;28;20041;-65
2022/06/24 07:59:23;;;;;;;13.13;4.18;;;23.50;87.00;;;;;;5061907;28;20078;-65
2022/06/24 08:01:50;;;;;;;7.38;3.78;;;23.60;87.00;;;;;;5072354;28;20028;-65
2022/06/24 08:04:18;;;;;;;8.07;3.10;;;23.60;86.90;;;;;;5073502;28;20036;-65
2022/06/24 08:06:49;;;;;;;9.18;2.85;;;23.60;85.80;;;;;;5059315;28;20390;-65
2022/06/24 08:09:17;;;;;;;5.82;2.30;;;23.60;85.80;;;;;;5073253;28;20391;-65
2022/06/24 08:11:46;;;;;;;9.38;2.50;;;23.60;86.10;;;;;;5072939;28;20040;-65
2022/06/24 08:14:13;;;;;;;8.18;2.70;;;23.60;87.10;;;;;;5073884;28;20491;-65
2022/06/24 08:16:39;;;;;;;4.75;2.20;;;23.60;88.40;;;;;;5072139;28;20044;-65
2022/06/24 08:19:05;;;;;;;6.55;2.20;;;23.60;86.90;;;;;;5073924;28;20036;-65
2022/06/24 08:21:31;;;;;;;5.25;2.47;;;23.60;87.10;;;;;;5072505;28;20484;-65
2022/06/24 08:23:57;;;;;;;7.28;2.47;;;23.60;88.60;;;;;;5072869;28;20033;-65
2022/06/24 08:26:26;;;;;;;8.60;2.10;;;23.70;89.70;;;;;;5061465;28;20086;-65
2022/06/24 08:28:51;;;;;;;8.48;2.90;;;23.60;89.90;;;;;;5067110;28;20068;-65
2022/06/24 08:31:17;;;;;;;4.47;2.30;;;23.70;90.30;;;;;;5066161;28;20504;-66
2022/06/24 08:33:43;;;;;;;9.82;2.20;;;23.70;90.20;;;;;;5072550;28;20123;-66
2022/06/24 08:36:09;;;;;;;6.65;1.92;;;23.70;90.00;;;;;;5072498;28;20032;-66
2022/06/24 08:38:37;;;;;;;5.43;2.05;;;23.80;90.00;;;;;;5058089;28;20084;-65
2022/06/24 08:41:04;;;;;;;10.05;2.63;;;23.80;90.40;;;;;;5058434;28;20108;-65
2022/06/24 08:43:36;;;;;;;3.83;1.80;;;23.80;90.40;;;;;;5061161;28;20033;-65
2022/06/24 08:46:03;;;;;;;5.78;2.10;;;23.90;90.70;;;;;;5072347;28;20017;-65
2022/06/24 08:48:33;;;;;;;6.43;2.38;;;23.90;90.50;;;;;;5071767;28;20044;-65
2022/06/24 08:51:00;;;;;;;7.10;2.22;;;24.00;90.30;;;;;;5069413;28;20107;-65
2022/06/24 08:53:31;;;;;;;5.00;2.22;;;24.00;90.40;;;;;;5072278;28;20060;-65
2022/06/24 08:55:58;;;;;;;6.50;2.03;;;24.00;90.60;;;;;;5070494;28;20052;-65
2022/06/24 08:58:24;;;;;;;6.97;2.33;;;24.10;90.50;;;;;;5069307;28;20396;-65
2022/06/24 09:00:49;;;;;;;7.60;2.67;;;24.10;89.20;;;;;;5072182;28;20036;-65
2022/06/24 09:03:15;;;;;;;6.32;2.55;;;24.10;89.00;;;;;;5073055;28;20116;-65
2022/06/24 09:05:41;;;;;;;8.10;2.65;;;24.10;89.80;;;;;;5059478;28;20123;-65
2022/06/24 09:08:10;;;;;;;5.28;2.15;;;24.20;89.90;;;;;;5070921;28;20438;-65
2022/06/24 09:10:39;;;;;;;7.10;2.30;;;24.10;90.00;;;;;;5072183;28;20036;-65
2022/06/24 09:13:05;;;;;;;5.43;1.90;;;24.20;90.50;;;;;;5061843;28;20036;-64
2022/06/24 09:15:32;;;;;;;8.23;2.00;;;24.20;90.20;;;;;;5070491;28;20072;-65
2022/06/24 09:17:59;;;;;;;4.88;2.42;;;24.20;88.60;;;;;;5071921;28;20035;-65
2022/06/24 09:20:28;;;;;;;4.10;1.70;;;24.20;88.80;;;;;;5068984;28;20032;-65
2022/06/24 09:23:06;;;;;;;2.65;1.63;;;24.20;87.20;;;;;;5069681;28;20044;-65
2022/06/24 09:25:53;;;;;;;5.05;1.88;;;24.20;87.20;;;;;;5067665;28;20049;-65
2022/06/24 09:28:23;;;;;;;2.92;1.35;;;24.10;86.40;;;;;;5067890;28;20083;-64
2022/06/24 09:30:50;;;;;;;3.40;1.42;;;24.10;86.10;;;;;;5069843;28;20036;-65
2022/06/24 09:33:18;;;;;;;4.55;2.00;;;24.10;87.20;;;;;;5067943;28;20439;-64
2022/06/24 09:35:44;;;;;;;5.53;2.05;;;24.00;86.90;;;;;;5070216;28;20117;-65
2022/06/24 09:38:11;;;;;;;5.05;1.90;;;24.00;87.50;;;;;;5068234;28;20480;-64
2022/06/24 09:40:40;;;;;;;4.60;2.20;;;24.00;87.60;;;;;;5068546;28;20020;-65
2022/06/24 09:43:09;;;;;;;6.82;2.67;;;24.00;88.00;;;;;;5056941;28;20036;-65
2022/06/24 09:45:51;;;;;;;5.20;2.05;;;23.90;88.10;;;;;;5070152;28;20484;-65
2022/06/24 09:48:34;;;;;;;5.13;2.35;;;24.00;88.00;;;;;;5071187;28;20031;-64
2022/06/24 09:51:04;;;;;;;;;;;24.00;88.30;;;;;;5058430;28;20082;-64
2022/06/24 09:53:35;;;;;;;5.38;2.42;;;24.00;86.70;;;;;;5072426;28;19915;-64
2022/06/24 09:56:02;;;;;;;4.25;2.50;;;24.00;87.80;;;;;;5058791;28;20525;-65
2022/06/24 09:58:28;;;;;;;7.60;3.00;;;24.00;88.80;;;;;;5070783;28;20036;-64
2022/06/24 10:00:54;;;;;;;6.80;3.20;;;24.00;89.70;;;;;;5059904;28;20480;-65
2022/06/24 10:03:20;;;;;;;9.73;4.22;;;24.10;90.30;;;;;;5070533;28;20028;-64
2022/06/24 10:05:51;;;;;;;5.28;2.58;;;24.10;90.40;;;;;;5060136;28;20044;-64
2022/06/24 10:08:30;;;;;;;8.38;2.67;;;24.20;90.60;;;;;;5058155;28;20033;-65
2022/06/24 10:10:59;;;;;;;9.40;2.53;;;24.20;90.40;;;;;;5072098;28;20494;-65
2022/06/24 10:13:25;;;;;;;4.57;2.45;;;24.20;90.20;;;;;;5071626;28;20028;-64
2022/06/24 10:15:53;;;;;;;6.97;2.67;;;24.20;90.00;;;;;;5060044;28;20025;-65
2022/06/24 10:18:27;;;;;;;6.90;3.35;;;24.20;90.10;;;;;;5056889;28;20036;-64
2022/06/24 10:20:58;;;;;;;5.10;2.78;;;24.30;90.60;;;;;;5071735;28;20036;-65
2022/06/24 10:23:49;;;;;;;4.20;2.53;;;24.30;90.90;;;;;;5070921;28;20055;-65
2022/06/24 10:26:19;;;;;;;5.32;2.80;;;24.30;90.90;;;;;;5058841;28;20385;-65
2022/06/24 10:29:03;;;;;;;7.18;3.05;;;24.30;90.50;;;;;;5057305;28;20024;-64
2022/06/24 10:31:48;;;;;;;5.90;2.90;;;24.30;90.10;;;;;;5058043;28;20100;-64
2022/06/24 10:34:22;;;;;;;6.00;2.47;;;24.30;90.20;;;;;;5072386;28;20124;-66
2022/06/24 10:36:49;;;;;;;3.92;2.15;;;24.30;90.20;;;;;;5057165;28;20388;-65
2022/06/24 10:39:20;;;;;;;5.22;2.45;;;24.30;90.50;;;;;;5069771;28;20056;-63
2022/06/24 10:41:46;;;;;;;5.40;2.60;;;24.30;90.30;;;;;;5067474;28;20021;-64
2022/06/24 10:44:30;;;;;;;7.95;2.90;;;24.30;90.50;;;;;;5066135;28;20059;-63
2022/06/24 10:47:24;;;;;;;7.50;3.20;;;24.40;90.60;;;;;;5068355;28;20040;-64
2022/06/24 10:49:55;;;;;;;6.38;2.53;;;24.30;90.70;;;;;;5057143;28;20048;-64
2022/06/24 10:52:45;;;;;;;6.78;2.70;;;24.40;90.70;;;;;;5070255;28;20144;-64
2022/06/24 10:55:29;;;;;;;6.70;2.75;;;24.30;90.50;;;;;;5063457;28;20032;-64
2022/06/24 10:58:05;;;;;;;5.47;2.60;;;24.30;90.40;;;;;;5069561;28;20036;-64
2022/06/24 11:00:36;;;;;;;6.07;2.97;;;24.30;90.10;;;;;;5071606;28;20036;-64
2022/06/24 11:03:05;;;;;;;7.78;3.03;;;24.30;90.50;;;;;;5062266;28;20036;-64
2022/06/24 11:05:34;;;;;;;8.13;3.10;;;24.30;90.60;;;;;;5067945;28;20075;-64
2022/06/24 11:08:01;;;;;;;7.13;2.83;;;24.30;90.80;;;;;;5068463;28;20055;-64
2022/06/24 11:10:30;;;;;;;5.20;2.83;;;24.30;90.90;;;;;;5068890;28;20037;-64
2022/06/24 11:12:58;;;;;;;4.80;2.50;;;24.30;90.90;;;;;;5070332;28;20047;-64
2022/06/24 11:15:45;;;;;;;6.07;3.10;;;24.30;91.10;;;;;;5068063;28;20484;-63
2022/06/24 11:18:14;;;;;;;6.55;2.97;;;24.30;91.10;;;;;;5071555;28;20496;-64
2022/06/24 11:20:53;;;;;;;7.47;3.25;;;24.30;91.20;;;;;;5074833;28;20081;-64
2022/06/24 11:23:21;;;;;;;7.88;2.47;;;24.30;91.30;;;;;;5066447;28;20032;-65
2022/06/24 11:26:04;;;;;;;9.27;2.78;;;24.30;91.10;;;;;;5067697;28;20028;-64
2022/06/24 11:28:34;;;;;;;;;;;24.30;91.00;;;;;;5074311;28;20136;-64
2022/06/24 11:31:23;;;;;;;5.13;2.97;;;24.20;90.60;;;;;;5064199;28;19909;-64
2022/06/24 11:34:05;;;;;;;5.72;2.88;;;24.20;90.60;;;;;;5068643;28;20024;-64
2022/06/24 11:36:32;;;;;;;7.30;2.65;;;24.10;90.50;;;;;;5071223;28;20098;-64
2022/06/24 11:39:02;;;;;;;4.85;2.17;;;24.10;90.60;;;;;;5062344;28;20036;-64
2022/06/24 11:41:29;;;;;;;3.58;1.55;;;24.00;90.50;;;;;;5071355;28;20028;-63
2022/06/24 11:43:55;;;;;;;2.75;1.70;;;24.00;88.10;;;;;;5069884;28;20665;-64
2022/06/24 11:46:21;;;;;;;3.30;1.60;;;23.90;88.30;;;;;;5072553;28;20435;-64
2022/06/24 11:48:47;;;;;;;5.43;1.65;;;23.90;89.10;;;;;;5059709;28;20484;-64
2022/06/24 11:51:18;;;;;;;4.35;1.38;;;23.90;89.20;;;;;;5071971;28;20107;-63
2022/06/24 11:53:58;;;;;;;2.40;1.25;;;23.80;89.00;;;;;;5071151;28;20032;-63
2022/06/24 11:56:29;;;;;;;3.38;1.38;;;23.80;88.90;;;;;;5067674;28;20025;-63
2022/06/24 11:58:56;;;;;;;3.65;1.45;;;23.80;89.40;;;;;;5069433;28;20037;-63
2022/06/24 12:01:23;;;;;;;6.88;1.70;;;23.80;90.00;;;;;;5055792;28;20473;-63
2022/06/24 12:03:50;;;;;;;5.00;1.60;;;23.70;90.10;;;;;;5059934;28;20029;-62
2022/06/24 12:06:17;;;;;;;5.70;1.90;;;23.70;90.40;;;;;;5060609;28;20471;-63
2022/06/24 12:08:44;;;;;;;2.30;1.55;;;23.70;90.50;;;;;;5062629;28;20082;-63
2022/06/24 12:11:17;;;;;;;4.63;1.50;;;23.70;90.50;;;;;;5072132;28;20016;-63
2022/06/24 12:13:58;;;;;;;3.35;1.60;;;23.60;90.60;;;;;;5065389;28;20429;-64
2022/06/24 12:16:28;;;;;;;3.08;1.50;;;23.60;90.50;;;;;;5062431;28;20090;-63
2022/06/24 12:18:55;;;;;;;3.25;1.40;;;23.60;90.40;;;;;;5065047;28;20041;-63
2022/06/24 12:21:28;;;;;;;2.97;1.30;;;23.60;90.20;;;;;;5066310;28;20032;-63
2022/06/24 12:23:54;;;;;;;;;;;23.60;90.10;;;;;;5070866;28;20459;-64
2022/06/24 12:26:25;;;;;;;2.13;1.40;;;23.50;89.70;;;;;;5058495;28;19940;-63
2022/06/24 12:29:02;;;;;;;3.53;1.73;;;23.40;90.00;;;;;;5056799;28;20040;-63
2022/06/24 12:31:29;;;;;;;3.20;1.50;;;23.50;90.10;;;;;;5069431;28;20032;-63
2022/06/24 12:33:59;;;;;;;2.05;1.40;;;23.40;90.30;;;;;;5071905;28;20033;-63
2022/06/24 12:36:35;;;;;;;4.05;1.40;;;23.40;90.40;;;;;;5067354;28;20040;-63
2022/06/24 12:39:03;;;;;;;2.28;1.30;;;23.40;90.50;;;;;;5066623;28;20068;-63
2022/06/24 12:41:29;;;;;;;3.83;1.58;;;23.40;90.50;;;;;;5064786;28;20036;-62
2022/06/24 12:43:56;;;;;;;3.00;1.52;;;23.40;90.50;;;;;;5068539;28;20364;-63
2022/06/24 12:46:24;;;;;;;2.33;1.40;;;23.30;90.50;;;;;;5069318;28;20032;-63
2022/06/24 12:51:40;;;;;;;3.38;1.75;;;23.40;90.40;;;;;;5069231;28;20021;-63
2022/06/24 12:54:06;;;;;;;3.60;1.70;;;23.30;90.50;;;;;;5071331;28;20037;-64
2022/06/24 12:56:34;;;;;;;6.07;1.90;;;23.40;90.70;;;;;;5068778;28;20040;-65
2022/06/24 12:59:00;;;;;;;4.28;1.52;;;23.30;90.90;;;;;;5058893;28;20487;-63
2022/06/24 13:01:26;;;;;;;2.92;1.50;;;23.40;90.80;;;;;;5068891;28;20020;-64